createdAt,value
2018-10-03T00:00:40.068Z,9.21
2018-10-03T00:03:09.254Z,9.18
2018-10-03T00:05:38.439Z,9.16
2018-10-03T00:08:07.630Z,9.17
2018-10-03T00:10:36.759Z,9.18
2018-10-03T00:13:05.937Z,9.16
2018-10-03T00:15:35.110Z,9.15
2018-10-03T00:18:04.681Z,9.13
2018-10-03T00:20:33.856Z,9.09
2018-10-03T00:23:03.018Z,9.09
2018-10-03T00:25:32.179Z,9.12
2018-10-03T00:28:01.331Z,9.16
2018-10-03T00:30:30.486Z,9.25
2018-10-03T00:32:59.620Z,9.36
2018-10-03T00:35:28.764Z,9.42
2018-10-03T00:37:57.928Z,9.48
2018-10-03T00:40:27.100Z,9.52
2018-10-03T00:42:56.291Z,9.55
2018-10-03T00:45:25.483Z,9.58
2018-10-03T00:47:54.600Z,9.57
2018-10-03T00:50:23.721Z,9.52
2018-10-03T00:52:52.894Z,9.52
2018-10-03T00:55:22.057Z,9.55
2018-10-03T00:57:51.248Z,9.53
2018-10-03T01:00:20.458Z,9.54
2018-10-03T01:02:49.640Z,9.51
2018-10-03T01:05:19.133Z,9.50
2018-10-03T01:07:48.445Z,9.49
2018-10-03T01:10:17.595Z,9.48
2018-10-03T01:12:46.745Z,9.49
2018-10-03T01:15:15.905Z,9.51
2018-10-03T01:17:45.017Z,9.53
2018-10-03T01:20:14.202Z,9.50
2018-10-03T01:22:43.347Z,9.47
2018-10-03T01:25:12.534Z,9.49
2018-10-03T01:27:41.693Z,9.53
2018-10-03T01:30:11.590Z,9.50
2018-10-03T01:32:40.719Z,9.47
2018-10-03T01:35:09.974Z,9.47
2018-10-03T01:37:39.171Z,9.47
2018-10-03T01:40:08.278Z,9.38
2018-10-03T01:42:37.396Z,9.36
2018-10-03T01:45:06.629Z,9.34
2018-10-03T01:47:35.808Z,9.34
2018-10-03T01:50:05.318Z,9.31
2018-10-03T01:52:34.540Z,9.25
2018-10-03T01:55:03.769Z,9.22
2018-10-03T01:57:32.888Z,9.21
2018-10-03T02:00:02.067Z,9.24
2018-10-03T02:02:31.209Z,9.15
2018-10-03T02:05:00.337Z,9.13
2018-10-03T02:07:29.520Z,9.09
2018-10-03T02:09:58.768Z,9.12
2018-10-03T02:12:27.933Z,9.07
2018-10-03T02:14:57.663Z,9.05
2018-10-03T02:17:26.852Z,9.03
2018-10-03T02:19:56.032Z,8.97
2018-10-03T02:22:25.274Z,8.94
2018-10-03T02:24:54.424Z,8.89
2018-10-03T02:27:23.607Z,8.86
2018-10-03T02:29:52.761Z,8.76
2018-10-03T02:32:21.943Z,8.72
2018-10-03T02:34:51.221Z,8.69
2018-10-03T02:37:20.364Z,8.63
2018-10-03T02:39:49.733Z,8.63
2018-10-03T02:42:18.869Z,8.60
2018-10-03T02:44:48.213Z,8.60
2018-10-03T02:47:17.425Z,8.63
2018-10-03T02:49:46.605Z,8.64
2018-10-03T02:52:15.847Z,8.64
2018-10-03T02:54:45.024Z,8.63
2018-10-03T02:57:14.201Z,8.62
2018-10-03T02:59:43.413Z,8.58
2018-10-03T03:02:12.641Z,8.58
2018-10-03T03:04:41.853Z,8.59
2018-10-03T03:07:11.068Z,8.60
2018-10-03T03:09:40.363Z,8.60
2018-10-03T03:12:09.526Z,8.58
2018-10-03T03:14:38.747Z,8.65
2018-10-03T03:17:07.916Z,8.70
2018-10-03T03:19:37.085Z,8.70
2018-10-03T03:22:06.331Z,8.76
2018-10-03T03:24:35.482Z,8.78
2018-10-03T03:27:04.679Z,8.80
2018-10-03T03:29:33.907Z,8.80
2018-10-03T03:32:03.139Z,8.83
2018-10-03T03:34:32.434Z,8.85
2018-10-03T03:37:01.675Z,8.84
2018-10-03T03:39:30.954Z,8.84
2018-10-03T03:42:00.117Z,8.82
2018-10-03T03:44:29.348Z,8.84
2018-10-03T03:46:58.528Z,8.84
2018-10-03T03:49:27.763Z,8.87
2018-10-03T03:51:57.148Z,8.91
2018-10-03T03:54:26.334Z,8.93
2018-10-03T03:56:55.546Z,8.95
2018-10-03T03:59:24.792Z,8.96
2018-10-03T04:01:54.029Z,8.96
2018-10-03T04:04:23.320Z,8.98
2018-10-03T04:06:52.514Z,8.99
2018-10-03T04:09:21.797Z,9.00
2018-10-03T04:11:51.404Z,9.00
2018-10-03T04:14:20.607Z,9.01
2018-10-03T04:16:49.826Z,9.05
2018-10-03T04:19:19.076Z,9.04
2018-10-03T04:21:48.319Z,9.07
2018-10-03T04:24:17.466Z,9.07
2018-10-03T04:26:46.763Z,9.09
2018-10-03T04:29:15.951Z,9.14
2018-10-03T04:31:45.085Z,9.13
2018-10-03T04:34:14.318Z,9.19
2018-10-03T04:36:43.462Z,9.15
2018-10-03T04:39:12.626Z,9.08
2018-10-03T04:41:41.810Z,9.05
2018-10-03T04:44:11.100Z,8.94
2018-10-03T04:46:40.257Z,8.85
2018-10-03T04:49:09.433Z,8.77
2018-10-03T04:51:38.497Z,8.71
2018-10-03T04:54:07.722Z,8.71
2018-10-03T04:56:36.911Z,8.73
2018-10-03T04:59:06.240Z,8.73
2018-10-03T05:01:35.434Z,8.73
2018-10-03T05:04:04.578Z,8.71
2018-10-03T05:06:33.714Z,8.72
2018-10-03T05:09:03.147Z,8.73
2018-10-03T05:11:32.316Z,8.73
2018-10-03T05:14:01.476Z,8.78
2018-10-03T05:16:30.709Z,8.79
2018-10-03T05:18:59.896Z,8.77
2018-10-03T05:21:29.080Z,8.77
2018-10-03T05:23:58.674Z,8.76
2018-10-03T05:26:27.906Z,8.76
2018-10-03T05:28:57.166Z,8.73
2018-10-03T05:31:26.309Z,8.73
2018-10-03T05:33:55.773Z,8.73
2018-10-03T05:36:25.093Z,8.74
2018-10-03T05:38:54.258Z,8.74
2018-10-03T05:41:23.628Z,8.76
2018-10-03T05:43:52.908Z,8.80
2018-10-03T05:46:22.176Z,8.85
2018-10-03T05:48:51.452Z,8.96
2018-10-03T05:51:20.635Z,9.07
2018-10-03T05:53:49.875Z,9.16
2018-10-03T05:56:19.064Z,9.22
2018-10-03T05:58:48.305Z,9.30
2018-10-03T06:01:17.496Z,9.32
2018-10-03T06:03:46.707Z,9.31
2018-10-03T06:06:15.877Z,9.30
2018-10-03T06:08:45.111Z,9.33
2018-10-03T06:11:14.311Z,9.33
2018-10-03T06:13:43.513Z,9.35
2018-10-03T06:16:12.687Z,9.33
2018-10-03T06:18:41.889Z,9.29
2018-10-03T06:21:11.212Z,9.21
2018-10-03T06:23:40.471Z,9.20
2018-10-03T06:26:09.723Z,9.19
2018-10-03T06:28:39.918Z,9.25
2018-10-03T06:31:09.480Z,9.32
2018-10-03T06:33:38.722Z,9.35
2018-10-03T06:36:08.211Z,9.41
2018-10-03T06:38:37.346Z,9.44
2018-10-03T06:41:06.578Z,9.43
2018-10-03T06:43:35.729Z,9.53
2018-10-03T06:46:05.010Z,9.59
2018-10-03T06:48:34.243Z,9.62
2018-10-03T06:51:03.557Z,9.63
2018-10-03T06:53:32.719Z,9.61
2018-10-03T06:56:01.971Z,9.63
2018-10-03T06:58:31.295Z,9.58
2018-10-03T07:01:00.512Z,9.52
2018-10-03T07:03:29.702Z,9.53
2018-10-03T07:05:58.885Z,9.47
2018-10-03T07:08:28.126Z,9.48
2018-10-03T07:10:57.352Z,9.58
2018-10-03T07:13:26.553Z,9.52
2018-10-03T07:15:55.840Z,9.54
2018-10-03T07:18:25.134Z,9.57
2018-10-03T07:20:54.300Z,9.63
2018-10-03T07:23:23.624Z,9.54
2018-10-03T07:25:52.844Z,9.59
2018-10-03T07:28:22.189Z,9.61
2018-10-03T07:30:51.653Z,9.73
2018-10-03T07:33:20.901Z,9.71
2018-10-03T07:35:50.303Z,9.72
2018-10-03T07:38:19.538Z,9.79
2018-10-03T07:40:49.826Z,9.81
2018-10-03T07:43:19.100Z,9.88
2018-10-03T07:45:48.380Z,9.86
2018-10-03T07:48:17.600Z,9.94
2018-10-03T07:50:46.853Z,9.90
2018-10-03T07:53:16.072Z,9.87
2018-10-03T07:55:45.273Z,9.83
2018-10-03T07:58:14.572Z,9.85
2018-10-03T08:00:43.746Z,9.76
2018-10-03T08:03:14.312Z,9.77
2018-10-03T08:05:47.256Z,9.81
2018-10-03T08:08:16.472Z,9.88
2018-10-03T08:10:45.708Z,9.96
2018-10-03T08:13:14.833Z,10.04
2018-10-03T08:15:44.229Z,10.15
2018-10-03T08:18:13.344Z,10.24
2018-10-03T08:20:42.572Z,10.43
2018-10-03T08:23:11.745Z,10.50
2018-10-03T08:25:40.934Z,10.53
2018-10-03T08:28:10.592Z,10.54
2018-10-03T08:30:39.874Z,10.65
2018-10-03T08:33:09.248Z,10.71
2018-10-03T08:35:38.597Z,10.71
2018-10-03T08:38:07.797Z,10.83
2018-10-03T08:40:37.084Z,11.05
2018-10-03T08:43:07.578Z,11.25
2018-10-03T08:45:36.831Z,11.39
2018-10-03T08:48:05.996Z,11.36
2018-10-03T08:50:35.227Z,11.35
2018-10-03T08:53:04.456Z,11.35
2018-10-03T08:55:33.600Z,11.25
2018-10-03T08:58:03.811Z,11.29
2018-10-03T09:00:33.072Z,11.49
2018-10-03T09:03:02.214Z,11.65
2018-10-03T09:05:31.399Z,11.78
2018-10-03T09:08:11.826Z,11.81
2018-10-03T09:10:42.611Z,11.85
2018-10-03T09:13:12.315Z,12.03
2018-10-03T09:15:41.464Z,12.15
2018-10-03T09:18:10.751Z,12.21
2018-10-03T09:20:39.943Z,12.26
2018-10-03T09:23:09.141Z,12.31
2018-10-03T09:25:38.277Z,12.23
2018-10-03T09:28:07.650Z,12.22
2018-10-03T09:30:36.886Z,12.26
2018-10-03T09:33:06.040Z,12.29
2018-10-03T09:35:35.216Z,12.38
2018-10-03T09:38:04.400Z,12.43
2018-10-03T09:40:33.599Z,12.47
2018-10-03T09:43:02.717Z,12.50
2018-10-03T09:45:31.884Z,12.57
2018-10-03T09:48:01.070Z,12.68
2018-10-03T09:50:30.312Z,12.77
2018-10-03T09:52:59.620Z,12.94
2018-10-03T09:55:28.755Z,13.08
2018-10-03T09:57:57.949Z,13.05
2018-10-03T10:00:32.289Z,13.24
2018-10-03T10:03:01.398Z,13.47
2018-10-03T10:05:30.600Z,13.54
2018-10-03T10:07:59.705Z,13.72
2018-10-03T10:10:28.914Z,13.77
2018-10-03T10:12:58.047Z,13.83
2018-10-03T10:15:27.189Z,13.77
2018-10-03T10:17:56.365Z,13.79
2018-10-03T10:20:25.693Z,13.93
2018-10-03T10:22:55.579Z,14.10
2018-10-03T10:25:24.812Z,14.04
2018-10-03T10:27:53.916Z,14.20
2018-10-03T10:30:23.080Z,14.23
2018-10-03T10:32:52.272Z,14.29
2018-10-03T10:35:21.401Z,14.21
2018-10-03T10:37:50.742Z,14.15
2018-10-03T10:40:19.943Z,13.91
2018-10-03T10:42:49.235Z,13.63
2018-10-03T10:45:18.379Z,13.45
2018-10-03T10:47:47.550Z,13.33
2018-10-03T10:50:16.805Z,13.30
2018-10-03T10:52:45.892Z,13.64
2018-10-03T10:55:15.094Z,13.99
2018-10-03T10:57:44.565Z,14.04
2018-10-03T11:00:13.776Z,13.91
2018-10-03T11:02:42.893Z,13.23
2018-10-03T11:05:12.138Z,12.68
2018-10-03T11:07:41.319Z,12.56
2018-10-03T11:10:11.043Z,12.49
2018-10-03T11:12:40.342Z,12.51
2018-10-03T11:15:09.429Z,12.60
2018-10-03T11:17:38.675Z,12.60
2018-10-03T11:20:08.008Z,12.71
2018-10-03T11:22:37.452Z,12.87
2018-10-03T11:25:06.742Z,13.16
2018-10-03T11:27:35.962Z,13.59
2018-10-03T11:30:05.608Z,13.79
2018-10-03T11:32:34.792Z,14.02
2018-10-03T11:35:04.066Z,14.26
2018-10-03T11:37:33.264Z,14.46
2018-10-03T11:40:02.605Z,14.47
2018-10-03T11:42:31.733Z,14.43
2018-10-03T11:45:01.133Z,14.41
2018-10-03T11:47:30.287Z,14.53
2018-10-03T11:49:59.477Z,14.20
2018-10-03T11:52:28.726Z,14.15
2018-10-03T11:54:58.863Z,13.85
2018-10-03T11:57:28.072Z,13.67
2018-10-03T11:59:57.408Z,13.65
2018-10-03T12:02:27.613Z,13.64
2018-10-03T12:04:56.852Z,13.58
2018-10-03T12:07:26.059Z,13.38
2018-10-03T12:09:55.279Z,13.31
2018-10-03T12:12:24.522Z,13.17
2018-10-03T12:14:53.732Z,13.17
2018-10-03T12:17:22.947Z,13.30
2018-10-03T12:19:52.100Z,13.36
2018-10-03T12:22:21.233Z,13.34
2018-10-03T12:24:50.547Z,13.23
2018-10-03T12:27:19.721Z,13.04
2018-10-03T12:29:48.866Z,12.80
2018-10-03T12:32:18.636Z,12.62
2018-10-03T12:34:47.857Z,12.53
2018-10-03T12:37:17.082Z,12.60
2018-10-03T12:39:46.260Z,12.88
2018-10-03T12:42:15.492Z,13.36
2018-10-03T12:44:44.653Z,13.64
2018-10-03T12:47:13.891Z,13.97
2018-10-03T12:49:43.094Z,14.21
2018-10-03T12:52:12.249Z,14.38
2018-10-03T12:54:41.532Z,14.64
2018-10-03T12:57:10.639Z,14.93
2018-10-03T12:59:39.863Z,15.17
2018-10-03T13:02:09.102Z,15.07
2018-10-03T13:04:38.527Z,14.82
2018-10-03T13:07:07.765Z,14.78
2018-10-03T13:09:37.120Z,14.85
2018-10-03T13:12:06.531Z,14.59
2018-10-03T13:14:35.753Z,14.32
2018-10-03T13:17:05.027Z,14.02
2018-10-03T13:19:35.229Z,13.85
2018-10-03T13:22:04.382Z,13.69
2018-10-03T13:24:33.627Z,13.93
2018-10-03T13:27:02.692Z,14.14
2018-10-03T13:29:31.819Z,14.10
2018-10-03T13:32:01.088Z,14.02
2018-10-03T13:34:30.167Z,14.26
2018-10-03T13:36:59.276Z,14.56
2018-10-03T13:39:28.523Z,14.83
2018-10-03T13:41:57.616Z,14.84
2018-10-03T13:44:26.824Z,15.10
2018-10-03T13:46:56.663Z,15.33
2018-10-03T13:49:25.759Z,15.44
2018-10-03T13:51:55.031Z,15.50
2018-10-03T13:54:24.129Z,15.37
2018-10-03T13:56:53.303Z,15.05
2018-10-03T13:59:22.439Z,14.70
2018-10-03T14:01:52.690Z,14.37
2018-10-03T14:04:21.909Z,14.23
2018-10-03T14:06:51.067Z,14.17
2018-10-03T14:09:20.291Z,14.22
2018-10-03T14:11:49.520Z,14.29
2018-10-03T14:14:18.795Z,14.25
2018-10-03T14:16:47.976Z,14.21
2018-10-03T14:19:17.159Z,14.20
2018-10-03T16:09:20.798Z,12.18
2018-10-03T16:11:50.031Z,12.19
2018-10-03T16:14:19.339Z,12.18
2018-10-03T16:16:48.616Z,12.18
2018-10-03T16:19:17.883Z,12.18
2018-10-03T16:21:47.087Z,12.23
2018-10-03T16:24:16.260Z,12.22
2018-10-03T16:26:45.494Z,12.31
2018-10-03T16:29:15.691Z,12.30
2018-10-03T16:31:45.604Z,12.29
2018-10-03T16:34:14.789Z,12.43
2018-10-03T16:36:45.015Z,12.38
2018-10-03T16:39:14.202Z,12.38
2018-10-03T16:41:43.302Z,12.30
2018-10-03T16:44:12.481Z,12.27
2018-10-03T16:46:42.244Z,12.25
2018-10-03T16:49:11.462Z,12.18
2018-10-03T16:51:40.700Z,12.14
2018-10-03T16:54:10.131Z,12.01
2018-10-03T16:56:39.380Z,11.97
2018-10-03T16:59:08.684Z,11.86
2018-10-03T17:01:38.144Z,11.80
2018-10-03T17:04:07.337Z,11.78
2018-10-03T17:06:36.803Z,11.72
2018-10-03T17:09:06.948Z,11.64
2018-10-03T17:11:36.707Z,11.55
2018-10-03T17:14:24.383Z,11.48
2018-10-03T17:16:54.508Z,11.40
2018-10-03T17:19:23.693Z,11.34
2018-10-03T17:21:54.559Z,11.28
2018-10-03T17:24:24.912Z,11.21
2018-10-03T17:26:54.019Z,11.16
2018-10-03T17:29:23.205Z,11.12
2018-10-03T17:31:52.351Z,11.10
2018-10-03T17:34:21.628Z,11.04
2018-10-03T17:36:52.172Z,10.98
2018-10-03T17:39:22.210Z,10.95
2018-10-03T17:41:51.352Z,10.90
2018-10-03T17:44:22.216Z,10.87
2018-10-03T17:46:52.771Z,10.83
2018-10-03T17:49:22.000Z,10.80
2018-10-03T17:51:51.203Z,10.73
2018-10-03T17:54:20.337Z,10.69
2018-10-03T17:56:50.641Z,10.68
2018-10-03T17:59:19.871Z,10.66
2018-10-03T18:01:59.149Z,10.68
2018-10-03T18:04:28.326Z,10.73
2018-10-03T18:07:02.276Z,10.71
2018-10-03T18:09:37.869Z,10.75
2018-10-03T18:12:13.962Z,10.79
2018-10-03T18:14:43.709Z,10.81
2018-10-03T18:17:13.136Z,10.83
2018-10-03T18:19:42.321Z,10.87
2018-10-03T18:22:11.615Z,10.90
2018-10-03T18:24:40.916Z,10.92
2018-10-03T18:27:10.089Z,10.98
2018-10-03T18:29:40.280Z,10.93
2018-10-03T18:32:09.475Z,10.92
2018-10-03T18:34:38.644Z,10.96
2018-10-03T18:37:07.874Z,10.97
2018-10-03T18:39:37.139Z,11.00
2018-10-03T18:42:06.524Z,11.05
2018-10-03T18:44:35.746Z,11.11
2018-10-03T18:47:04.909Z,11.11
2018-10-03T18:49:34.130Z,11.16
2018-10-03T18:52:03.438Z,11.18
2018-10-03T18:54:32.523Z,11.24
2018-10-03T18:57:01.834Z,11.21
2018-10-03T18:59:31.072Z,11.21
2018-10-03T19:02:00.345Z,11.18
2018-10-03T19:04:29.489Z,11.19
2018-10-03T19:06:59.885Z,11.18
2018-10-03T19:09:29.028Z,11.20
2018-10-03T19:11:58.282Z,11.17
2018-10-03T19:14:27.449Z,11.13
2018-10-03T19:16:56.652Z,11.03
2018-10-03T19:19:25.844Z,11.03
2018-10-03T19:21:55.122Z,10.94
2018-10-03T19:24:25.424Z,10.79
2018-10-03T19:26:54.580Z,10.65
2018-10-03T19:29:23.848Z,10.55
2018-10-03T19:31:53.112Z,10.47
2018-10-03T19:34:22.330Z,10.36
2018-10-03T19:36:51.605Z,10.39
2018-10-03T19:39:20.870Z,10.36
2018-10-03T19:41:50.180Z,10.39
2018-10-03T19:44:19.402Z,10.35
2018-10-03T19:46:48.601Z,10.34
2018-10-03T19:49:17.807Z,10.33
2018-10-03T19:51:47.096Z,10.29
2018-10-03T19:54:16.300Z,10.17
2018-10-03T19:56:45.473Z,10.18
2018-10-03T19:59:14.686Z,10.17
2018-10-03T20:01:43.920Z,10.13
2018-10-03T20:04:13.188Z,10.04
2018-10-03T20:06:42.368Z,9.97
2018-10-03T20:09:11.665Z,9.89
2018-10-03T20:11:40.776Z,9.77
2018-10-03T20:14:10.019Z,9.73
2018-10-03T20:16:39.446Z,9.60
2018-10-03T20:19:08.636Z,9.53
2018-10-03T20:21:37.836Z,9.56
2018-10-03T20:24:07.012Z,9.55
2018-10-03T20:26:36.189Z,9.47
2018-10-03T20:29:05.370Z,9.39
2018-10-03T20:31:34.568Z,9.44
2018-10-03T20:34:03.712Z,9.43
2018-10-03T20:36:32.863Z,9.41
2018-10-03T20:39:02.074Z,9.35
2018-10-03T20:41:31.362Z,9.30
2018-10-03T20:44:00.496Z,9.27
2018-10-03T20:46:29.604Z,9.25
2018-10-03T20:48:58.693Z,9.22
2018-10-03T20:51:27.776Z,9.24
2018-10-03T20:53:56.926Z,9.15
2018-10-03T20:56:26.313Z,9.08
2018-10-03T20:58:55.446Z,8.99
2018-10-03T21:01:24.581Z,8.88
2018-10-03T21:03:53.707Z,8.78
2018-10-03T21:06:22.979Z,8.66
2018-10-03T21:08:52.223Z,8.60
2018-10-03T21:11:21.381Z,8.51
2018-10-03T21:13:50.517Z,8.60
2018-10-03T21:16:19.685Z,8.61
2018-10-03T21:18:48.757Z,8.60
2018-10-03T21:21:17.919Z,8.66
2018-10-03T21:23:47.174Z,8.65
2018-10-03T21:26:16.286Z,8.65
2018-10-03T21:28:45.460Z,8.67
2018-10-03T21:31:14.615Z,8.65
2018-10-03T21:33:43.775Z,8.63
2018-10-03T21:36:12.898Z,8.58
2018-10-03T21:38:42.029Z,8.53
2018-10-03T21:41:11.211Z,8.54
2018-10-03T21:43:40.448Z,8.50
2018-10-03T21:46:09.544Z,8.52
2018-10-03T21:48:38.744Z,8.47
2018-10-03T21:51:07.893Z,8.42
2018-10-03T21:53:37.128Z,8.48
2018-10-03T21:56:06.330Z,8.44
2018-10-03T21:58:35.538Z,8.38
2018-10-03T22:01:04.709Z,8.37
2018-10-03T22:03:33.901Z,8.35
2018-10-03T22:06:03.021Z,8.30
2018-10-03T22:08:32.159Z,8.29
2018-10-03T22:11:01.311Z,8.27
2018-10-03T22:13:30.544Z,8.25
2018-10-03T22:15:59.695Z,8.23
2018-10-03T22:18:28.872Z,8.20
2018-10-03T22:20:58.114Z,8.21
2018-10-03T22:23:28.327Z,8.19
2018-10-03T22:25:57.446Z,8.22
2018-10-03T22:28:26.555Z,8.21
2018-10-03T22:30:55.752Z,8.21
2018-10-03T22:33:24.873Z,8.22
2018-10-03T22:35:54.064Z,8.23
2018-10-03T22:38:23.274Z,8.23
2018-10-03T22:40:52.442Z,8.22
2018-10-03T22:43:21.580Z,8.22
2018-10-03T22:45:52.068Z,8.27
2018-10-03T22:48:21.175Z,8.30
2018-10-03T22:50:50.340Z,8.36
2018-10-03T22:53:19.445Z,8.38
2018-10-03T22:55:48.621Z,8.43
2018-10-03T22:58:17.755Z,8.50
2018-10-03T23:00:46.900Z,8.49
2018-10-03T23:03:16.003Z,8.57
2018-10-03T23:05:45.127Z,8.57
2018-10-03T23:08:14.254Z,8.57
2018-10-03T23:10:43.433Z,8.54
2018-10-03T23:13:12.585Z,8.50
2018-10-03T23:15:41.709Z,8.44
2018-10-03T23:18:10.849Z,8.40
2018-10-03T23:20:40.083Z,8.38
2018-10-03T23:23:09.303Z,8.36
2018-10-03T23:25:38.394Z,8.34
2018-10-03T23:28:07.568Z,8.35
2018-10-03T23:30:36.777Z,8.29
2018-10-03T23:33:05.900Z,8.24
2018-10-03T23:35:35.048Z,8.21
2018-10-03T23:38:04.248Z,8.18
2018-10-03T23:40:33.420Z,8.18
2018-10-03T23:43:02.661Z,8.23
2018-10-03T23:45:31.763Z,8.20
2018-10-03T23:48:01.001Z,8.17
2018-10-03T23:50:30.559Z,8.15
2018-10-03T23:52:59.718Z,8.21
2018-10-03T23:55:28.890Z,8.20
2018-10-03T23:57:58.028Z,8.21
